Time;durP1;ratioP1;P1;durP2;ratioP2;P2;SDS_P1;SDS_P2;PMS_P1;PMS_P2;Temp;Humidity;BMP_temperature;BMP_pressure;BME280_temperature;BME280_humidity;BME280_pressure;Samples;Min_cycle;Max_cycle;Signal;HPM_P1;HPM_P2
2023/12/12 00:02:21;;;;;;;6.25;1.30;;;;;;;9.02;100.00;98793.56;5067074;28;20495;-48
2023/12/12 00:04:48;;;;;;;6.40;1.98;;;;;;;9.01;100.00;98791.97;5060559;28;20041;-52
2023/12/12 00:07:15;;;;;;;7.90;1.48;;;;;;;8.99;100.00;98786.06;5064144;28;20508;-44
2023/12/12 00:09:43;;;;;;;5.25;1.60;;;;;;;9.00;100.00;98787.63;5067220;28;20079;-47
2023/12/12 00:12:10;;;;;;;6.55;1.65;;;;;;;8.98;100.00;98787.22;5065574;28;20060;-47
2023/12/12 00:14:38;;;;;;;6.50;1.80;;;;;;;8.99;100.00;98793.53;5053877;28;20064;-49
2023/12/12 00:17:05;;;;;;;8.13;1.52;;;;;;;8.98;100.00;98783.66;5067237;28;20052;-45
2023/12/12 00:19:32;;;;;;;6.90;1.85;;;;;;;8.99;100.00;98782.50;5066910;28;20052;-47
2023/12/12 00:22:00;;;;;;;8.90;2.35;;;;;;;8.97;100.00;98785.66;5066624;28;20506;-44
2023/12/12 00:24:27;;;;;;;10.13;1.63;;;;;;;8.98;100.00;98781.69;5066960;28;20049;-47
2023/12/12 00:26:54;;;;;;;3.42;1.60;;;;;;;8.95;100.00;98787.97;5067225;28;20088;-49
2023/12/12 00:29:22;;;;;;;6.22;1.70;;;;;;;8.92;100.00;98782.44;5067013;28;20052;-45
2023/12/12 00:31:49;;;;;;;10.73;1.90;;;;;;;8.91;100.00;98781.66;5054762;28;20045;-49
2023/12/12 00:34:16;;;;;;;5.72;2.03;;;;;;;8.89;100.00;98780.44;5066319;28;20036;-45
2023/12/12 00:36:44;;;;;;;7.68;2.15;;;;;;;8.86;100.00;98768.22;5066989;28;20052;-46
2023/12/12 00:39:11;;;;;;;8.68;2.58;;;;;;;8.84;100.00;98775.28;5057511;28;20099;-49
2023/12/12 00:41:39;;;;;;;7.78;2.53;;;;;;;8.81;100.00;98779.59;5042337;28;20382;-44
2023/12/12 00:44:06;;;;;;;8.02;2.13;;;;;;;8.78;100.00;98766.56;5044875;28;20060;-45
2023/12/12 00:46:35;;;;;;;11.35;3.17;;;;;;;8.77;100.00;98764.16;5057422;28;21170;-45
2023/12/12 00:49:02;;;;;;;11.43;2.50;;;;;;;8.72;100.00;98773.59;5070838;28;20045;-45
2023/12/12 00:51:30;;;;;;;13.95;2.78;;;;;;;8.70;100.00;98764.91;5070502;28;20048;-44
2023/12/12 00:53:58;;;;;;;9.88;2.20;;;;;;;8.67;100.00;98760.16;5070870;28;20045;-45
2023/12/12 00:56:28;;;;;;;9.80;2.20;;;;;;;8.64;100.00;98755.38;5039173;28;20052;-44
2023/12/12 00:58:55;;;;;;;12.35;3.03;;;;;;;8.61;100.00;98753.41;5061091;28;20041;-45
2023/12/12 01:01:23;;;;;;;23.30;4.18;;;;;;;8.60;100.00;98756.53;5066503;28;20063;-48
2023/12/12 01:03:50;;;;;;;11.77;2.67;;;;;;;8.58;100.00;98762.41;5063148;28;20037;-49
2023/12/12 01:06:23;;;;;;;22.38;5.10;;;;;;;8.52;100.00;98758.44;5068552;28;20048;-48
2023/12/12 01:08:55;;;;;;;9.75;2.80;;;;;;;8.50;100.00;98752.50;5069106;28;20045;-47
2023/12/12 01:11:22;;;;;;;11.52;2.33;;;;;;;8.44;100.00;98751.28;5070114;28;20573;-46
2023/12/12 01:13:50;;;;;;;7.53;2.30;;;;;;;8.41;100.00;98741.00;5057592;28;20049;-44
2023/12/12 01:16:17;;;;;;;22.23;3.22;;;;;;;8.36;100.00;98738.59;5051581;28;20048;-45
2023/12/12 01:18:45;;;;;;;19.77;3.85;;;;;;;8.31;100.00;98736.19;5070004;28;20048;-54
2023/12/12 01:21:12;;;;;;;21.23;3.22;;;;;;;8.31;100.00;98727.91;5070457;28;20048;-48
2023/12/12 01:23:55;;;;;;;22.58;3.53;;;;;;;8.31;100.00;98727.91;5069536;28;20389;-45
2023/12/12 01:26:23;;;;;;;17.75;2.58;;;;;;;8.33;100.00;98720.03;5068084;28;20048;-44
2023/12/12 01:28:51;;;;;;;26.63;3.67;;;;;;;8.33;100.00;98725.56;5066717;28;20486;-46
2023/12/12 01:31:18;;;;;;;17.02;4.25;;;;;;;8.31;100.00;98725.16;5069489;28;20520;-44
2023/12/12 01:33:47;;;;;;;17.73;3.33;;;;;;;8.31;100.00;98719.63;5069899;28;20398;-47
2023/12/12 01:36:15;;;;;;;14.95;3.58;;;;;;;8.30;100.00;98712.53;5069036;28;20047;-47
2023/12/12 01:38:44;;;;;;;19.38;3.35;;;;;;;8.29;100.00;98720.00;5067555;28;20051;-46
2023/12/12 01:41:12;;;;;;;20.73;4.72;;;;;;;8.31;100.00;98716.88;5069237;28;20053;-45
2023/12/12 01:43:39;;;;;;;22.27;2.95;;;;;;;8.33;100.00;98717.28;5069358;28;20045;-49
2023/12/12 01:46:11;;;;;;;10.77;2.90;;;;;;;8.34;100.00;98716.13;5069822;28;20072;-44
2023/12/12 01:48:39;;;;;;;13.63;4.13;;;;;;;8.37;100.00;98712.59;5068998;28;20045;-48
2023/12/12 01:51:07;;;;;;;18.85;2.65;;;;;;;8.39;100.00;98713.03;5068028;28;20044;-45
2023/12/12 01:53:43;;;;;;;15.05;2.95;;;;;;;8.44;100.00;98709.91;5060588;28;20048;-47
2023/12/12 01:56:11;;;;;;;16.77;3.20;;;;;;;8.45;100.00;98700.44;5067969;28;20526;-44
2023/12/12 01:58:42;;;;;;;18.50;2.85;;;;;;;8.46;100.00;98700.09;5061863;28;20072;-45
2023/12/12 02:01:11;;;;;;;17.15;2.78;;;;;;;8.46;100.00;98691.81;5059210;28;20402;-48
2023/12/12 02:03:40;;;;;;;18.00;3.58;;;;;;;8.46;100.00;98699.28;5060931;28;20479;-44
2023/12/12 02:06:11;;;;;;;17.20;2.72;;;;;;;8.46;100.00;98693.78;5060720;28;20051;-44
2023/12/12 02:08:38;;;;;;;14.40;3.00;;;;;;;8.47;100.00;98701.66;5062607;28;20077;-46
2023/12/12 02:11:06;;;;;;;14.70;3.70;;;;;;;8.49;100.00;98701.28;5064716;28;20052;-46
2023/12/12 02:13:33;;;;;;;16.45;2.85;;;;;;;8.50;100.00;98694.59;5051418;28;20056;-49
2023/12/12 02:16:01;;;;;;;22.90;4.05;;;;;;;8.49;100.00;98693.81;5058983;28;20045;-45
2023/12/12 02:18:29;;;;;;;11.32;4.03;;;;;;;8.50;100.00;98687.09;5058894;28;20140;-48
2023/12/12 02:20:56;;;;;;;17.95;3.15;;;;;;;8.51;100.00;98683.19;5067319;28;20537;-44
2023/12/12 02:23:23;;;;;;;17.63;2.83;;;;;;;8.52;100.00;98686.75;5062906;28;20049;-44
2023/12/12 02:25:51;;;;;;;13.88;2.63;;;;;;;8.52;100.00;98670.19;5055742;28;20044;-48
2023/12/12 02:28:18;;;;;;;17.73;2.88;;;;;;;8.53;100.00;98671.75;5064664;28;20415;-45
2023/12/12 02:30:45;;;;;;;16.13;2.45;;;;;;;8.55;100.00;98663.91;5066418;28;20056;-45
2023/12/12 02:33:13;;;;;;;16.05;3.00;;;;;;;8.56;100.00;98673.75;5059849;28;20045;-52
2023/12/12 02:35:40;;;;;;;10.05;2.13;;;;;;;8.56;100.00;98687.56;5049196;28;20395;-45
2023/12/12 02:38:08;;;;;;;19.95;4.25;;;;;;;8.55;100.00;98674.94;5055685;28;20136;-47
2023/12/12 02:40:35;;;;;;;12.45;3.22;;;;;;;8.56;100.00;98677.31;5068419;28;20060;-49
2023/12/12 02:43:03;;;;;;;10.43;1.67;;;;;;;8.56;100.00;98671.00;5033050;28;20052;-48
2023/12/12 02:45:30;;;;;;;9.10;2.80;;;;;;;8.56;100.00;98674.56;5050783;28;20041;-48
2023/12/12 02:47:57;;;;;;;18.98;2.95;;;;;;;8.55;100.00;98674.94;5059993;28;20052;-47
2023/12/12 02:50:25;;;;;;;18.48;3.03;;;;;;;8.55;100.00;98670.19;5056255;28;20032;-45
2023/12/12 02:52:52;;;;;;;17.42;2.83;;;;;;;8.53;100.00;98661.53;5067935;28;20041;-47
2023/12/12 02:55:19;;;;;;;11.65;2.53;;;;;;;8.52;100.00;98659.16;5050889;28;20056;-46
2023/12/12 02:57:47;;;;;;;8.82;2.13;;;;;;;8.51;100.00;98652.06;5063805;28;20494;-45
2023/12/12 03:02:40;;;;;;;11.98;2.63;;;;;;;8.46;100.00;98644.13;5072494;22;20135;-51
2023/12/12 03:05:08;;;;;;;12.85;3.45;;;;;;;8.44;100.00;98643.72;5064537;28;20047;-51
2023/12/12 03:07:39;;;;;;;10.27;2.00;;;;;;;8.41;100.00;98633.47;5070953;28;20152;-51
2023/12/12 03:10:07;;;;;;;13.68;2.83;;;;;;;8.40;100.00;98640.13;5061474;28;20405;-51
2023/12/12 03:12:34;;;;;;;12.95;1.77;;;;;;;8.38;100.00;98632.25;5057917;28;20053;-51
2023/12/12 03:15:04;;;;;;;11.52;1.98;;;;;;;8.35;100.00;98626.72;5069076;28;20131;-54
2023/12/12 03:17:31;;;;;;;15.00;2.08;;;;;;;8.32;100.00;98620.00;5069098;28;20120;-52
2023/12/12 03:19:59;;;;;;;11.23;2.72;;;;;;;8.28;100.00;98613.69;5067931;28;20037;-54
2023/12/12 03:22:26;;;;;;;13.73;1.55;;;;;;;8.27;100.00;98608.53;5068545;28;20044;-51
2023/12/12 03:24:54;;;;;;;9.60;2.63;;;;;;;8.24;100.00;98606.50;5064921;28;20037;-50
2023/12/12 03:27:21;;;;;;;13.52;1.55;;;;;;;8.21;100.00;98619.09;5065587;28;20041;-45
2023/12/12 03:29:49;;;;;;;7.50;2.30;;;;;;;8.20;100.00;98608.44;5062092;28;20091;-52
2023/12/12 03:32:16;;;;;;;10.93;1.65;;;;;;;8.18;100.00;98622.59;5066544;28;20052;-50
2023/12/12 03:34:44;;;;;;;8.27;1.48;;;;;;;8.15;100.00;98617.88;5068334;28;20049;-53
2023/12/12 03:37:13;;;;;;;10.82;2.35;;;;;;;8.14;100.00;98607.22;5068423;28;20098;-52
2023/12/12 03:39:41;;;;;;;6.80;1.15;;;;;;;8.14;100.00;98612.72;5067774;28;20044;-52
2023/12/12 03:42:09;;;;;;;7.55;1.55;;;;;;;8.12;100.00;98609.56;5064082;28;20039;-53
2023/12/12 03:44:36;;;;;;;9.90;1.38;;;;;;;8.10;100.00;98604.41;5062178;28;20048;-54
2023/12/12 03:47:04;;;;;;;14.77;2.28;;;;;;;8.10;100.00;98598.13;5060687;28;20053;-49
2023/12/12 03:49:31;;;;;;;9.27;1.50;;;;;;;8.10;100.00;98604.41;5064145;28;20422;-52
2023/12/12 03:51:59;;;;;;;10.10;2.05;;;;;;;8.09;100.00;98586.31;5063419;28;20049;-51
2023/12/12 03:54:26;;;;;;;8.55;1.92;;;;;;;8.08;100.00;98594.94;5059487;28;20047;-50
2023/12/12 03:56:55;;;;;;;8.55;1.55;;;;;;;8.06;100.00;98589.03;5063256;28;20056;-49
2023/12/12 03:59:22;;;;;;;7.38;1.60;;;;;;;8.03;100.00;98587.03;5067542;28;20044;-52
2023/12/12 04:01:50;;;;;;;17.27;3.40;;;;;;;8.03;100.00;98587.03;5063129;28;20065;-52
2023/12/12 04:04:17;;;;;;;4.90;1.75;;;;;;;8.01;100.00;98578.34;5067458;28;20052;-52
2023/12/12 04:06:46;;;;;;;10.00;1.85;;;;;;;7.98;100.00;98586.22;5068978;28;20045;-50
2023/12/12 04:09:15;;;;;;;8.00;1.50;;;;;;;7.97;100.00;98583.81;5047839;28;20041;-51
2023/12/12 04:11:42;;;;;;;10.05;1.80;;;;;;;7.95;100.00;98584.22;5068330;28;20053;-52
2023/12/12 04:14:10;;;;;;;7.95;1.73;;;;;;;7.94;100.00;98571.59;5067531;28;20060;-53
2023/12/12 04:16:39;;;;;;;5.97;1.10;;;;;;;7.91;100.00;98583.41;5064964;28;20048;-51
2023/12/12 04:19:06;;;;;;;6.60;1.20;;;;;;;7.90;100.00;98579.06;5067635;28;20060;-52
2023/12/12 04:21:34;;;;;;;7.05;1.60;;;;;;;7.90;100.00;98573.56;5067479;28;20044;-51
2023/12/12 04:24:01;;;;;;;7.32;1.75;;;;;;;7.88;100.00;98570.38;5062544;28;20051;-52
2023/12/12 04:26:30;;;;;;;7.60;1.67;;;;;;;7.86;100.00;98569.97;5068214;28;20052;-52
2023/12/12 04:28:57;;;;;;;10.48;1.95;;;;;;;7.86;100.00;98566.44;5066584;28;20055;-50
2023/12/12 04:31:25;;;;;;;11.23;2.17;;;;;;;7.85;100.00;98564.84;5065672;28;20052;-51
2023/12/12 04:33:52;;;;;;;10.57;2.30;;;;;;;7.85;100.00;98560.13;5067538;28;20518;-50
2023/12/12 04:36:20;;;;;;;14.27;2.25;;;;;;;7.86;100.00;98566.44;5065796;28;20497;-53
2023/12/12 04:38:48;;;;;;;12.32;2.65;;;;;;;7.84;100.00;98564.03;5051570;28;20040;-51
2023/12/12 04:41:15;;;;;;;13.85;2.83;;;;;;;7.85;100.00;98570.34;5060927;28;20063;-51
2023/12/12 04:43:44;;;;;;;16.33;2.72;;;;;;;7.82;100.00;98566.38;5064197;28;20406;-51
2023/12/12 04:46:19;;;;;;;24.67;4.22;;;;;;;7.82;100.00;98566.38;5053931;28;20045;-51
2023/12/12 04:48:47;;;;;;;12.43;2.40;;;;;;;7.82;100.00;98569.16;5054993;28;20054;-51
2023/12/12 04:51:14;;;;;;;15.63;3.15;;;;;;;7.83;100.00;98569.94;5061511;28;20044;-50
2023/12/12 04:53:41;;;;;;;17.60;3.97;;;;;;;7.83;100.00;98568.00;5059637;28;20060;-52
2023/12/12 04:56:09;;;;;;;12.50;3.38;;;;;;;7.84;100.00;98564.03;5048464;28;20064;-49
2023/12/12 04:58:36;;;;;;;12.60;3.65;;;;;;;7.83;100.00;98551.47;5066357;28;20045;-48
2023/12/12 05:01:04;;;;;;;14.65;3.85;;;;;;;7.84;100.00;98558.53;5059985;28;20461;-52
2023/12/12 05:03:32;;;;;;;18.52;5.00;;;;;;;7.84;100.00;98558.53;5055292;28;20056;-52
2023/12/12 05:06:00;;;;;;;11.98;2.30;;;;;;;7.84;100.00;98558.53;5066448;28;20051;-47
2023/12/12 05:08:28;;;;;;;16.27;3.55;;;;;;;7.84;100.00;98550.28;5064830;28;20063;-50
2023/12/12 05:10:56;;;;;;;16.60;3.90;;;;;;;7.85;100.00;98557.38;5066144;28;20051;-53
2023/12/12 05:13:23;;;;;;;15.88;3.10;;;;;;;7.84;100.00;98546.72;5042540;28;20036;-52
2023/12/12 05:15:51;;;;;;;20.42;4.93;;;;;;;7.85;100.00;98551.06;5064715;28;20049;-48
2023/12/12 05:18:18;;;;;;;18.90;3.75;;;;;;;7.82;100.00;98555.38;5066516;28;20056;-56
2023/12/12 05:20:46;;;;;;;16.60;3.17;;;;;;;7.81;100.00;98548.28;5064084;28;20047;-54
2023/12/12 05:23:13;;;;;;;17.98;3.17;;;;;;;7.80;100.00;98546.69;5055027;28;20049;-54
2023/12/12 05:25:41;;;;;;;20.17;3.78;;;;;;;7.78;100.00;98538.00;5057677;28;20074;-50
2023/12/12 05:28:08;;;;;;;16.70;2.92;;;;;;;7.75;100.00;98546.25;5066436;28;20055;-50
2023/12/12 05:30:36;;;;;;;19.55;4.90;;;;;;;7.72;100.00;98542.31;5061506;28;20044;-50
2023/12/12 05:33:07;;;;;;;10.68;2.45;;;;;;;7.69;100.00;98543.06;5066492;28;20051;-50
2023/12/12 05:35:34;;;;;;;10.38;2.95;;;;;;;7.65;100.00;98547.72;5062796;28;20052;-50
2023/12/12 05:38:03;;;;;;;26.38;3.33;;;;;;;7.62;100.00;98543.00;5069340;28;20040;-47
2023/12/12 05:40:30;;;;;;;17.55;3.72;;;;;;;7.61;100.00;98543.38;5060616;28;20052;-45
2023/12/12 05:42:58;;;;;;;15.95;3.38;;;;;;;7.60;100.00;98537.06;5064267;28;20045;-52
2023/12/12 05:45:26;;;;;;;18.42;4.43;;;;;;;7.57;100.00;98535.06;5067301;28;20052;-51
2023/12/12 05:47:54;;;;;;;14.23;2.90;;;;;;;7.51;100.00;98528.34;5066126;28;20406;-48
2023/12/12 05:50:21;;;;;;;13.38;4.50;;;;;;;7.47;100.00;98523.94;5066413;28;20067;-49
2023/12/12 05:52:50;;;;;;;18.35;3.78;;;;;;;7.45;100.00;98540.84;5063701;28;20052;-47
2023/12/12 05:55:18;;;;;;;19.77;3.55;;;;;;;7.34;100.00;98515.97;5062965;28;20048;-51
2023/12/12 05:57:45;;;;;;;15.35;2.97;;;;;;;7.32;100.00;98520.25;5061246;28;20053;-50
2023/12/12 06:00:13;;;;;;;12.13;3.20;;;;;;;7.27;100.00;98523.38;5050819;28;20060;-54
2023/12/12 06:02:41;;;;;;;14.43;3.78;;;;;;;7.19;100.00;98527.19;5061530;28;20064;-49
2023/12/12 06:05:09;;;;;;;13.68;4.00;;;;;;;7.15;100.00;98526.34;5054856;28;20053;-51
2023/12/12 06:07:38;;;;;;;16.10;3.70;;;;;;;7.10;100.00;98518.44;5068250;28;20119;-50
2023/12/12 06:10:06;;;;;;;17.23;3.83;;;;;;;7.07;100.00;98524.72;5065526;28;20041;-45
2023/12/12 06:12:34;;;;;;;16.10;3.95;;;;;;;7.05;100.00;98516.03;5068403;28;20044;-50
2023/12/12 06:15:02;;;;;;;15.98;4.45;;;;;;;7.04;100.00;98517.97;5067950;28;20494;-53
2023/12/12 06:17:30;;;;;;;18.60;5.88;;;;;;;7.04;100.00;98511.72;5051074;28;20049;-50
2023/12/12 06:19:58;;;;;;;15.05;3.80;;;;;;;7.02;100.00;98512.06;5069233;28;20057;-55
2023/12/12 06:22:25;;;;;;;10.90;3.13;;;;;;;7.03;100.00;98512.88;5068846;28;20051;-54
2023/12/12 06:24:53;;;;;;;14.05;2.97;;;;;;;7.02;100.00;98525.03;5063596;28;20040;-51
2023/12/12 06:27:21;;;;;;;11.95;2.83;;;;;;;7.01;100.00;98524.25;5059179;28;20044;-51
2023/12/12 06:29:51;;;;;;;11.30;3.10;;;;;;;7.05;100.00;98521.53;5066372;28;20055;-52
2023/12/12 06:32:19;;;;;;;36.63;7.90;;;;;;;7.08;100.00;98518.03;5064470;28;20040;-52
2023/12/12 06:34:46;;;;;;;23.08;4.95;;;;;;;7.14;100.00;98519.28;5039794;28;20128;-52
2023/12/12 06:37:14;;;;;;;15.95;4.68;;;;;;;7.19;100.00;98524.44;5060755;28;20064;-49
2023/12/12 06:39:42;;;;;;;16.02;3.40;;;;;;;7.22;100.00;98526.44;5064994;28;20037;-54
2023/12/12 06:42:09;;;;;;;15.80;3.17;;;;;;;7.26;100.00;98524.53;5065149;28;20086;-50
2023/12/12 06:44:37;;;;;;;19.05;4.72;;;;;;;7.28;100.00;98517.47;5043954;28;20063;-53
2023/12/12 06:47:04;;;;;;;14.93;3.30;;;;;;;7.31;100.00;98513.16;5064268;28;20051;-52
2023/12/12 06:49:32;;;;;;;14.90;3.75;;;;;;;7.33;100.00;98516.34;5067830;28;20049;-51
2023/12/12 06:52:01;;;;;;;16.50;3.63;;;;;;;7.34;100.00;98517.91;5059223;28;20041;-51
2023/12/12 06:54:29;;;;;;;15.50;3.03;;;;;;;7.35;100.00;98519.50;5063961;28;20147;-52
2023/12/12 06:56:57;;;;;;;16.30;3.50;;;;;;;7.35;100.00;98519.50;5046808;28;20049;-51
2023/12/12 06:59:24;;;;;;;13.35;3.88;;;;;;;7.32;100.00;98517.50;5068561;28;20044;-51
2023/12/12 07:01:52;;;;;;;14.05;3.35;;;;;;;7.30;100.00;98514.34;5063091;28;20406;-50
2023/12/12 07:04:21;;;;;;;13.85;3.85;;;;;;;7.24;100.00;98507.59;5060996;28;20675;-50
2023/12/12 07:06:49;;;;;;;19.08;4.20;;;;;;;7.15;100.00;98509.84;5071840;28;21312;-50
2023/12/12 07:09:16;;;;;;;15.38;3.65;;;;;;;7.10;100.00;98513.72;5067246;28;20052;-48
2023/12/12 07:11:44;;;;;;;15.98;3.47;;;;;;;7.05;100.00;98513.28;5064797;28;20052;-52
2023/12/12 07:14:28;;;;;;;10.20;4.72;;;;;;;6.96;100.00;98513.59;5063236;28;20568;-50
2023/12/12 07:16:56;;;;;;;15.80;5.05;;;;;;;6.89;100.00;98509.94;5065572;28;20029;-50
2023/12/12 07:19:24;;;;;;;16.25;8.43;;;;;;;6.84;100.00;98505.56;5058180;28;20055;-51
2023/12/12 07:21:52;;;;;;;13.40;6.10;;;;;;;6.81;100.00;98511.03;5067587;28;20055;-50
2023/12/12 07:24:22;;;;;;;23.52;7.80;;;;;;;6.79;100.00;98502.38;5068375;28;20379;-51
2023/12/12 07:26:50;;;;;;;31.15;11.35;;;;;;;6.78;100.00;98511.78;5058497;28;20499;-49
2023/12/12 07:29:19;;;;;;;24.98;7.90;;;;;;;6.78;100.00;98512.56;5061999;28;20051;-50
2023/12/12 07:31:47;;;;;;;12.88;7.18;;;;;;;6.79;100.00;98518.88;5064016;28;20052;-52
2023/12/12 07:34:15;;;;;;;14.70;5.90;;;;;;;6.83;100.00;98519.72;5047622;28;20044;-50
2023/12/12 07:36:45;;;;;;;15.23;6.50;;;;;;;6.85;100.00;98526.41;5064314;28;20059;-51
2023/12/12 07:39:13;;;;;;;13.90;5.25;;;;;;;6.87;100.00;98526.84;5061358;28;20045;-53
2023/12/12 07:41:43;;;;;;;18.88;7.20;;;;;;;6.88;100.00;98524.88;5058284;28;20053;-51
2023/12/12 07:44:12;;;;;;;18.90;4.60;;;;;;;6.87;100.00;98515.03;5066709;28;20127;-50
2023/12/12 07:46:41;;;;;;;11.32;4.95;;;;;;;6.89;100.00;98527.25;5067903;28;20052;-50
2023/12/12 07:49:09;;;;;;;15.80;4.32;;;;;;;6.88;100.00;98528.44;5066958;28;20052;-49
2023/12/12 07:51:37;;;;;;;16.20;4.90;;;;;;;6.84;100.00;98526.78;5067323;28;20048;-50
2023/12/12 07:54:06;;;;;;;13.02;4.65;;;;;;;6.82;100.00;98529.13;5049877;28;20048;-48
2023/12/12 07:56:34;;;;;;;26.70;6.47;;;;;;;6.83;100.00;98531.47;5066763;28;20060;-53
2023/12/12 07:59:01;;;;;;;14.82;4.32;;;;;;;6.82;100.00;98529.13;5066553;28;20049;-51
2023/12/12 08:01:29;;;;;;;16.13;5.95;;;;;;;6.79;100.00;98522.41;5067178;28;20060;-51
2023/12/12 08:03:57;;;;;;;11.70;4.30;;;;;;;6.79;100.00;98525.16;5044915;28;20048;-52
2023/12/12 08:06:26;;;;;;;18.42;4.65;;;;;;;6.81;100.00;98522.03;5050959;28;20043;-49
2023/12/12 08:08:54;;;;;;;16.65;4.45;;;;;;;6.80;100.00;98521.25;5066810;28;20052;-52
2023/12/12 08:11:24;;;;;;;10.20;3.45;;;;;;;6.79;100.00;98524.38;5067555;28;20394;-50
2023/12/12 08:13:52;;;;;;;11.60;3.72;;;;;;;6.79;100.00;98519.66;5067409;28;20045;-52
2023/12/12 08:16:19;;;;;;;12.25;4.28;;;;;;;6.77;100.00;98526.69;5060002;28;20073;-48
2023/12/12 08:18:47;;;;;;;12.85;3.88;;;;;;;6.73;100.00;98521.94;5053687;28;20059;-50
2023/12/12 08:21:14;;;;;;;13.95;5.50;;;;;;;6.70;100.00;98522.69;5066806;28;20056;-54
2023/12/12 08:23:42;;;;;;;16.42;6.25;;;;;;;6.66;100.00;98521.88;5067076;28;20040;-52
2023/12/12 08:26:10;;;;;;;14.90;5.50;;;;;;;6.64;100.00;98518.69;5066517;28;20406;-52
2023/12/12 08:28:38;;;;;;;15.55;6.35;;;;;;;6.64;100.00;98523.41;5063775;28;20060;-50
2023/12/12 08:31:06;;;;;;;18.33;6.32;;;;;;;6.56;100.00;98522.53;5066120;28;20048;-49
2023/12/12 08:33:33;;;;;;;16.92;6.72;;;;;;;6.51;100.00;98531.06;5061620;28;20036;-51
2023/12/12 08:36:02;;;;;;;20.38;6.35;;;;;;;6.45;100.00;98527.06;5066360;28;20049;-51
2023/12/12 08:38:30;;;;;;;15.90;7.05;;;;;;;6.44;100.00;98536.47;5066407;28;20428;-53
2023/12/12 08:40:57;;;;;;;15.43;5.90;;;;;;;6.43;100.00;98534.91;5058881;28;20061;-51
2023/12/12 08:43:25;;;;;;;22.48;8.85;;;;;;;6.43;100.00;98534.09;5062640;28;20494;-49
2023/12/12 08:45:54;;;;;;;25.20;11.43;;;;;;;6.43;100.00;98539.59;5066890;28;20716;-50
2023/12/12 08:48:23;;;;;;;29.77;11.13;;;;;;;6.42;100.00;98540.75;5048367;28;20037;-52
2023/12/12 08:50:51;;;;;;;37.65;11.50;;;;;;;6.41;100.00;98533.66;5065310;28;20049;-50
2023/12/12 08:53:26;;;;;;;17.13;8.75;;;;;;;6.34;100.00;98531.63;5060510;28;20074;-47
2023/12/12 08:55:55;;;;;;;18.08;7.20;;;;;;;6.29;100.00;98522.91;5066289;28;20681;-48
2023/12/12 08:58:25;;;;;;;29.05;9.73;;;;;;;6.28;100.00;98527.59;5057118;28;20071;-51
2023/12/12 09:00:53;;;;;;;34.97;11.90;;;;;;;6.32;100.00;98519.41;5061799;28;20064;-51
2023/12/12 09:03:21;;;;;;;37.47;14.00;;;;;;;6.34;100.00;98515.13;5064714;28;20045;-50
2023/12/12 09:05:49;;;;;;;39.05;13.25;;;;;;;6.34;100.00;98515.13;5064416;28;20051;-53
2023/12/12 09:08:17;;;;;;;34.58;13.52;;;;;;;6.36;100.00;98518.28;5069810;28;20131;-52
2023/12/12 09:10:44;;;;;;;32.50;15.65;;;;;;;6.35;100.00;98516.72;5063226;28;20052;-52
2023/12/12 09:13:12;;;;;;;36.67;14.95;;;;;;;6.37;100.00;98517.16;5068476;28;20443;-52
2023/12/12 09:15:39;;;;;;;33.53;14.65;;;;;;;6.37;100.00;98514.41;5063816;28;20048;-52
2023/12/12 09:18:08;;;;;;;24.38;10.07;;;;;;;6.40;100.00;98523.84;5070920;28;20044;-52
2023/12/12 09:20:47;;;;;;;32.53;13.43;;;;;;;6.43;100.00;98523.91;5043363;28;20044;-51
2023/12/12 09:23:16;;;;;;;29.45;11.85;;;;;;;6.46;100.00;98523.16;5064938;28;20056;-48
2023/12/12 09:25:43;;;;;;;26.88;10.30;;;;;;;6.49;100.00;98522.41;5067846;28;20383;-49
2023/12/12 09:28:11;;;;;;;28.45;10.55;;;;;;;6.54;100.00;98518.56;5054602;28;20071;-52
2023/12/12 09:30:38;;;;;;;28.85;9.13;;;;;;;6.56;100.00;98522.53;5065462;28;20044;-49
2023/12/12 09:33:06;;;;;;;35.67;6.32;;;;;;;6.61;100.00;98519.44;5044535;28;20064;-53
2023/12/12 09:35:37;;;;;;;24.77;7.80;;;;;;;6.66;100.00;98527.38;5067950;28;20059;-53
2023/12/12 09:38:05;;;;;;;26.30;6.90;;;;;;;6.71;100.00;98528.97;5050548;28;20063;-56
2023/12/12 09:40:35;;;;;;;26.05;5.55;;;;;;;6.78;100.00;98528.28;5068829;28;20052;-51
2023/12/12 09:43:04;;;;;;;25.67;5.68;;;;;;;6.82;100.00;98529.91;5059892;28;20045;-52
2023/12/12 09:45:32;;;;;;;28.20;5.18;;;;;;;6.86;100.00;98527.22;5049623;28;20056;-52
2023/12/12 09:48:00;;;;;;;31.88;6.90;;;;;;;6.89;100.00;98529.19;5064683;28;20051;-49
2023/12/12 09:50:30;;;;;;;24.77;6.43;;;;;;;6.90;100.00;98526.09;5068711;28;20081;-50
2023/12/12 09:52:59;;;;;;;24.00;8.95;;;;;;;6.94;100.00;98537.91;5063269;28;20417;-52
2023/12/12 09:55:28;;;;;;;21.27;7.60;;;;;;;7.01;100.00;98535.25;5067949;28;20052;-53
2023/12/12 09:57:56;;;;;;;23.50;7.45;;;;;;;7.06;100.00;98534.13;5067226;28;20044;-52
2023/12/12 10:00:24;;;;;;;22.27;6.85;;;;;;;7.12;100.00;98538.13;5068486;28;20048;-51
2023/12/12 10:02:57;;;;;;;22.52;8.68;;;;;;;7.14;100.00;98536.59;5066678;28;20056;-52
2023/12/12 10:05:27;;;;;;;24.40;8.13;;;;;;;7.16;100.00;98539.75;5069744;28;20398;-52
2023/12/12 10:07:55;;;;;;;23.13;7.05;;;;;;;7.19;100.00;98540.97;5069833;28;20045;-50
2023/12/12 10:10:34;;;;;;;23.90;6.20;;;;;;;7.26;100.00;98550.09;5068353;28;20052;-52
2023/12/12 10:13:02;;;;;;;21.38;6.93;;;;;;;7.35;100.00;98547.84;5056184;28;20044;-51
2023/12/12 10:15:30;;;;;;;23.30;9.25;;;;;;;7.46;100.00;98558.16;5055858;28;20053;-51
2023/12/12 10:18:00;;;;;;;27.75;6.75;;;;;;;7.53;100.00;98553.53;5067085;28;20048;-55
2023/12/12 10:20:29;;;;;;;15.30;5.38;;;;;;;7.61;100.00;98544.16;5064781;28;20080;-48
2023/12/12 10:23:00;;;;;;;24.60;6.25;;;;;;;7.70;100.00;98547.41;5067062;28;20061;-51
2023/12/12 10:25:30;;;;;;;17.90;4.88;;;;;;;7.79;100.00;98549.81;5040894;28;20061;-51
2023/12/12 10:27:58;;;;;;;24.13;5.57;;;;;;;7.84;100.00;98555.78;5062638;28;20040;-50
2023/12/12 10:30:27;;;;;;;21.55;4.95;;;;;;;7.85;100.00;98548.31;5060636;28;20063;-53
2023/12/12 10:32:55;;;;;;;17.92;6.43;;;;;;;7.86;100.00;98547.91;5056013;28;20057;-49
2023/12/12 10:35:25;;;;;;;19.13;6.88;;;;;;;7.86;100.00;98550.66;5067989;28;20036;-51
2023/12/12 10:37:53;;;;;;;24.55;7.15;;;;;;;7.89;100.00;98555.44;5068176;28;20713;-51
2023/12/12 10:40:22;;;;;;;21.88;5.78;;;;;;;7.89;100.00;98547.16;5067395;28;20048;-52
2023/12/12 10:42:51;;;;;;;22.70;7.20;;;;;;;7.88;100.00;98558.56;5066322;28;20055;-53
2023/12/12 10:45:23;;;;;;;25.50;7.25;;;;;;;7.86;100.00;98556.19;5060435;28;20115;-52
2023/12/12 10:47:53;;;;;;;24.58;7.55;;;;;;;7.86;100.00;98556.19;5063800;28;20048;-50
2023/12/12 10:50:23;;;;;;;17.60;7.03;;;;;;;7.84;100.00;98547.50;5064722;28;20488;-54
2023/12/12 10:52:53;;;;;;;18.58;7.00;;;;;;;7.87;100.00;98557.78;5067134;28;20383;-52
2023/12/12 10:55:24;;;;;;;22.15;7.97;;;;;;;7.92;100.00;98554.66;5061322;28;20123;-52
2023/12/12 10:57:55;;;;;;;19.75;8.07;;;;;;;7.96;100.00;98561.00;5057581;28;20410;-54
2023/12/12 11:00:23;;;;;;;22.20;8.75;;;;;;;7.97;100.00;98568.09;5058059;28;20071;-53
2023/12/12 11:02:52;;;;;;;23.60;9.15;;;;;;;8.02;100.00;98569.72;5044689;28;20036;-48
2023/12/12 11:05:20;;;;;;;30.15;10.63;;;;;;;8.12;100.00;98562.72;5054172;28;20057;-52
2023/12/12 11:07:51;;;;;;;30.50;9.25;;;;;;;8.16;100.00;98566.28;5045574;28;20052;-51
2023/12/12 11:10:22;;;;;;;23.17;8.93;;;;;;;8.18;100.00;98572.22;5053156;28;20060;-51
2023/12/12 11:12:58;;;;;;;27.42;12.25;;;;;;;8.23;100.00;98571.84;5067249;28;20044;-49
2023/12/12 11:15:27;;;;;;;32.92;11.43;;;;;;;8.28;100.00;98577.03;5061008;28;20049;-51
2023/12/12 11:17:56;;;;;;;30.42;11.93;;;;;;;8.32;100.00;98575.09;5054784;28;20044;-55
2023/12/12 11:20:24;;;;;;;30.45;11.65;;;;;;;8.37;100.00;98574.72;5063392;28;20395;-47
2023/12/12 11:22:53;;;;;;;31.52;11.93;;;;;;;8.41;100.00;98568.09;5049295;28;20052;-52
2023/12/12 11:25:21;;;;;;;22.20;9.93;;;;;;;8.45;100.00;98570.84;5065273;28;20083;-50
2023/12/12 11:27:52;;;;;;;29.58;11.05;;;;;;;8.48;100.00;98567.31;5059621;28;20044;-48
2023/12/12 11:30:29;;;;;;;22.25;8.52;;;;;;;8.49;100.00;98568.91;5067740;28;20064;-52
2023/12/12 11:32:57;;;;;;;18.65;8.35;;;;;;;8.51;100.00;98561.84;5059161;28;20049;-52
2023/12/12 11:35:33;;;;;;;15.23;6.50;;;;;;;8.50;100.00;98557.50;5067057;28;20040;-50